sensor_id;sensor_type;location;lat;lon;timestamp;P1;durP1;ratioP1;P2;durP2;ratioP2
43248;SDS011;29216;51.248;6.808;2023-03-23T00:01:13;4.13;;;2.10;;
43248;SDS011;29216;51.248;6.808;2023-03-23T00:03:44;2.70;;;2.30;;
43248;SDS011;29216;51.248;6.808;2023-03-23T00:06:12;6.05;;;2.28;;
43248;SDS011;29216;51.248;6.808;2023-03-23T00:08:42;2.33;;;2.10;;
43248;SDS011;29216;51.248;6.808;2023-03-23T00:11:12;5.53;;;2.50;;
43248;SDS011;29216;51.248;6.808;2023-03-23T00:13:42;3.80;;;2.20;;
43248;SDS011;29216;51.248;6.808;2023-03-23T00:16:09;7.03;;;2.53;;
43248;SDS011;29216;51.248;6.808;2023-03-23T00:18:45;2.45;;;2.25;;
43248;SDS011;29216;51.248;6.808;2023-03-23T00:21:11;4.25;;;2.50;;
43248;SDS011;29216;51.248;6.808;2023-03-23T00:23:37;4.03;;;2.50;;
43248;SDS011;29216;51.248;6.808;2023-03-23T00:26:04;5.05;;;2.70;;
43248;SDS011;29216;51.248;6.808;2023-03-23T00:28:30;3.03;;;2.17;;
43248;SDS011;29216;51.248;6.808;2023-03-23T00:30:59;4.07;;;2.42;;
43248;SDS011;29216;51.248;6.808;2023-03-23T00:33:28;3.40;;;2.35;;
43248;SDS011;29216;51.248;6.808;2023-03-23T00:35:58;4.45;;;2.40;;
43248;SDS011;29216;51.248;6.808;2023-03-23T00:38:24;3.80;;;2.42;;
43248;SDS011;29216;51.248;6.808;2023-03-23T00:40:50;2.75;;;2.40;;
43248;SDS011;29216;51.248;6.808;2023-03-23T00:43:17;4.50;;;2.20;;
43248;SDS011;29216;51.248;6.808;2023-03-23T00:45:44;3.55;;;2.25;;
43248;SDS011;29216;51.248;6.808;2023-03-23T00:48:14;2.88;;;2.22;;
43248;SDS011;29216;51.248;6.808;2023-03-23T00:50:40;4.65;;;2.33;;
43248;SDS011;29216;51.248;6.808;2023-03-23T00:53:06;4.30;;;2.28;;
43248;SDS011;29216;51.248;6.808;2023-03-23T00:55:32;2.15;;;1.98;;
43248;SDS011;29216;51.248;6.808;2023-03-23T00:57:58;4.03;;;2.30;;
43248;SDS011;29216;51.248;6.808;2023-03-23T01:00:25;4.35;;;2.50;;
43248;SDS011;29216;51.248;6.808;2023-03-23T01:02:52;2.97;;;2.17;;
43248;SDS011;29216;51.248;6.808;2023-03-23T01:05:18;3.67;;;2.20;;
43248;SDS011;29216;51.248;6.808;2023-03-23T01:07:44;2.50;;;2.10;;
43248;SDS011;29216;51.248;6.808;2023-03-23T01:10:10;2.72;;;2.20;;
43248;SDS011;29216;51.248;6.808;2023-03-23T01:12:45;3.25;;;2.22;;
43248;SDS011;29216;51.248;6.808;2023-03-23T01:15:15;3.30;;;2.30;;
43248;SDS011;29216;51.248;6.808;2023-03-23T01:17:42;3.10;;;2.40;;
43248;SDS011;29216;51.248;6.808;2023-03-23T01:20:08;4.05;;;2.55;;
43248;SDS011;29216;51.248;6.808;2023-03-23T01:22:35;3.85;;;2.53;;
43248;SDS011;29216;51.248;6.808;2023-03-23T01:25:00;3.08;;;2.13;;
43248;SDS011;29216;51.248;6.808;2023-03-23T01:27:26;4.32;;;2.25;;
43248;SDS011;29216;51.248;6.808;2023-03-23T01:29:51;2.47;;;2.13;;
43248;SDS011;29216;51.248;6.808;2023-03-23T01:32:17;2.90;;;2.20;;
43248;SDS011;29216;51.248;6.808;2023-03-23T01:34:43;2.88;;;2.20;;
43248;SDS011;29216;51.248;6.808;2023-03-23T01:37:08;2.50;;;2.30;;
43248;SDS011;29216;51.248;6.808;2023-03-23T01:39:35;3.60;;;2.38;;
43248;SDS011;29216;51.248;6.808;2023-03-23T01:42:02;3.85;;;2.35;;
43248;SDS011;29216;51.248;6.808;2023-03-23T01:46:56;2.92;;;2.35;;
43248;SDS011;29216;51.248;6.808;2023-03-23T01:49:41;6.38;;;2.35;;
43248;SDS011;29216;51.248;6.808;2023-03-23T01:52:14;4.35;;;2.30;;
43248;SDS011;29216;51.248;6.808;2023-03-23T01:54:44;4.13;;;2.50;;
43248;SDS011;29216;51.248;6.808;2023-03-23T01:57:13;6.40;;;2.40;;
43248;SDS011;29216;51.248;6.808;2023-03-23T01:59:42;4.55;;;2.70;;
43248;SDS011;29216;51.248;6.808;2023-03-23T02:02:10;2.72;;;2.38;;
43248;SDS011;29216;51.248;6.808;2023-03-23T02:04:37;4.00;;;2.30;;
43248;SDS011;29216;51.248;6.808;2023-03-23T02:07:04;3.40;;;2.38;;
43248;SDS011;29216;51.248;6.808;2023-03-23T02:09:29;4.50;;;2.75;;
43248;SDS011;29216;51.248;6.808;2023-03-23T02:11:55;4.32;;;2.70;;
43248;SDS011;29216;51.248;6.808;2023-03-23T02:14:22;5.38;;;3.10;;
43248;SDS011;29216;51.248;6.808;2023-03-23T02:17:04;4.05;;;2.90;;
43248;SDS011;29216;51.248;6.808;2023-03-23T02:38:35;3.78;;;2.55;;
43248;SDS011;29216;51.248;6.808;2023-03-23T02:41:18;5.07;;;2.63;;
43248;SDS011;29216;51.248;6.808;2023-03-23T02:43:46;3.42;;;2.45;;
43248;SDS011;29216;51.248;6.808;2023-03-23T02:46:14;4.22;;;2.92;;
43248;SDS011;29216;51.248;6.808;2023-03-23T02:48:41;4.03;;;2.65;;
43248;SDS011;29216;51.248;6.808;2023-03-23T02:51:10;4.50;;;2.58;;
43248;SDS011;29216;51.248;6.808;2023-03-23T02:53:37;6.43;;;3.15;;
43248;SDS011;29216;51.248;6.808;2023-03-23T02:56:06;3.15;;;2.85;;
43248;SDS011;29216;51.248;6.808;2023-03-23T02:58:35;3.83;;;2.58;;
43248;SDS011;29216;51.248;6.808;2023-03-23T03:01:13;5.43;;;2.60;;
43248;SDS011;29216;51.248;6.808;2023-03-23T03:03:54;4.53;;;2.72;;
43248;SDS011;29216;51.248;6.808;2023-03-23T03:09:14;4.07;;;2.30;;
43248;SDS011;29216;51.248;6.808;2023-03-23T03:11:50;4.25;;;2.83;;
43248;SDS011;29216;51.248;6.808;2023-03-23T03:14:21;2.47;;;2.28;;
43248;SDS011;29216;51.248;6.808;2023-03-23T03:19:45;3.35;;;2.30;;
43248;SDS011;29216;51.248;6.808;2023-03-23T03:22:13;4.70;;;2.50;;
43248;SDS011;29216;51.248;6.808;2023-03-23T03:24:39;4.50;;;2.90;;
43248;SDS011;29216;51.248;6.808;2023-03-23T03:27:10;4.82;;;2.40;;
43248;SDS011;29216;51.248;6.808;2023-03-23T03:29:49;3.42;;;2.20;;
43248;SDS011;29216;51.248;6.808;2023-03-23T03:32:21;3.33;;;2.40;;
43248;SDS011;29216;51.248;6.808;2023-03-23T03:34:49;2.63;;;2.28;;
43248;SDS011;29216;51.248;6.808;2023-03-23T03:37:15;3.22;;;2.40;;
43248;SDS011;29216;51.248;6.808;2023-03-23T03:39:42;3.72;;;2.13;;
43248;SDS011;29216;51.248;6.808;2023-03-23T03:42:08;2.20;;;2.00;;
43248;SDS011;29216;51.248;6.808;2023-03-23T03:44:34;2.75;;;2.50;;
43248;SDS011;29216;51.248;6.808;2023-03-23T03:46:59;2.97;;;2.50;;
43248;SDS011;29216;51.248;6.808;2023-03-23T03:49:25;3.72;;;2.45;;
43248;SDS011;29216;51.248;6.808;2023-03-23T03:51:52;3.67;;;2.33;;
43248;SDS011;29216;51.248;6.808;2023-03-23T03:54:17;2.95;;;2.22;;
43248;SDS011;29216;51.248;6.808;2023-03-23T03:56:43;3.08;;;2.28;;
43248;SDS011;29216;51.248;6.808;2023-03-23T03:59:10;3.67;;;2.50;;
43248;SDS011;29216;51.248;6.808;2023-03-23T04:01:37;2.85;;;2.20;;
43248;SDS011;29216;51.248;6.808;2023-03-23T04:04:03;6.35;;;2.40;;
43248;SDS011;29216;51.248;6.808;2023-03-23T04:06:31;3.08;;;2.30;;
43248;SDS011;29216;51.248;6.808;2023-03-23T04:09:01;4.45;;;2.13;;
43248;SDS011;29216;51.248;6.808;2023-03-23T04:11:31;2.70;;;2.38;;
43248;SDS011;29216;51.248;6.808;2023-03-23T04:13:57;2.95;;;2.38;;
43248;SDS011;29216;51.248;6.808;2023-03-23T04:16:22;3.17;;;2.40;;
43248;SDS011;29216;51.248;6.808;2023-03-23T04:18:48;3.67;;;2.58;;
43248;SDS011;29216;51.248;6.808;2023-03-23T04:21:15;3.40;;;2.33;;
43248;SDS011;29216;51.248;6.808;2023-03-23T04:23:41;3.55;;;2.60;;
43248;SDS011;29216;51.248;6.808;2023-03-23T04:26:06;6.05;;;2.28;;
43248;SDS011;29216;51.248;6.808;2023-03-23T04:28:32;2.50;;;2.30;;
43248;SDS011;29216;51.248;6.808;2023-03-23T04:30:59;2.22;;;2.00;;
43248;SDS011;29216;51.248;6.808;2023-03-23T04:33:26;2.85;;;2.20;;
43248;SDS011;29216;51.248;6.808;2023-03-23T04:35:53;4.82;;;2.20;;
43248;SDS011;29216;51.248;6.808;2023-03-23T04:38:20;3.13;;;2.33;;
43248;SDS011;29216;51.248;6.808;2023-03-23T04:40:48;3.15;;;2.15;;
43248;SDS011;29216;51.248;6.808;2023-03-23T04:43:19;3.97;;;2.47;;
43248;SDS011;29216;51.248;6.808;2023-03-23T04:45:52;3.10;;;2.33;;
43248;SDS011;29216;51.248;6.808;2023-03-23T04:48:21;2.45;;;2.25;;
43248;SDS011;29216;51.248;6.808;2023-03-23T04:50:51;2.63;;;2.33;;
43248;SDS011;29216;51.248;6.808;2023-03-23T04:53:17;3.60;;;2.30;;
43248;SDS011;29216;51.248;6.808;2023-03-23T04:55:44;2.90;;;2.33;;
43248;SDS011;29216;51.248;6.808;2023-03-23T04:58:10;3.83;;;2.75;;
43248;SDS011;29216;51.248;6.808;2023-03-23T05:00:37;3.38;;;2.47;;
43248;SDS011;29216;51.248;6.808;2023-03-23T05:03:03;5.90;;;2.58;;
43248;SDS011;29216;51.248;6.808;2023-03-23T05:05:29;5.50;;;2.60;;
43248;SDS011;29216;51.248;6.808;2023-03-23T05:07:55;3.95;;;2.40;;
43248;SDS011;29216;51.248;6.808;2023-03-23T05:10:21;4.53;;;2.33;;
43248;SDS011;29216;51.248;6.808;2023-03-23T05:12:47;3.85;;;2.50;;
43248;SDS011;29216;51.248;6.808;2023-03-23T05:15:14;4.65;;;2.33;;
43248;SDS011;29216;51.248;6.808;2023-03-23T05:17:41;4.07;;;2.45;;
43248;SDS011;29216;51.248;6.808;2023-03-23T05:20:12;2.65;;;2.30;;
43248;SDS011;29216;51.248;6.808;2023-03-23T05:22:39;3.15;;;2.40;;
43248;SDS011;29216;51.248;6.808;2023-03-23T05:25:06;4.93;;;2.45;;
43248;SDS011;29216;51.248;6.808;2023-03-23T05:27:35;3.28;;;2.33;;
43248;SDS011;29216;51.248;6.808;2023-03-23T05:30:03;6.45;;;2.42;;
43248;SDS011;29216;51.248;6.808;2023-03-23T05:32:29;4.10;;;2.72;;
43248;SDS011;29216;51.248;6.808;2023-03-23T05:34:56;4.47;;;2.65;;
43248;SDS011;29216;51.248;6.808;2023-03-23T05:37:23;2.97;;;2.33;;
43248;SDS011;29216;51.248;6.808;2023-03-23T05:39:50;4.50;;;2.67;;
43248;SDS011;29216;51.248;6.808;2023-03-23T05:42:19;3.65;;;2.55;;
43248;SDS011;29216;51.248;6.808;2023-03-23T05:44:49;4.13;;;2.50;;
43248;SDS011;29216;51.248;6.808;2023-03-23T05:47:15;3.78;;;2.17;;
43248;SDS011;29216;51.248;6.808;2023-03-23T05:49:41;3.88;;;2.40;;
43248;SDS011;29216;51.248;6.808;2023-03-23T05:52:07;2.70;;;2.45;;
43248;SDS011;29216;51.248;6.808;2023-03-23T05:54:32;2.97;;;2.20;;
43248;SDS011;29216;51.248;6.808;2023-03-23T05:56:59;4.93;;;2.60;;
43248;SDS011;29216;51.248;6.808;2023-03-23T05:59:24;4.47;;;2.78;;
43248;SDS011;29216;51.248;6.808;2023-03-23T06:01:51;3.80;;;2.72;;
43248;SDS011;29216;51.248;6.808;2023-03-23T06:04:18;4.63;;;2.65;;
43248;SDS011;29216;51.248;6.808;2023-03-23T06:06:44;2.78;;;2.20;;
43248;SDS011;29216;51.248;6.808;2023-03-23T06:09:10;2.90;;;2.42;;
43248;SDS011;29216;51.248;6.808;2023-03-23T06:11:36;7.00;;;2.92;;
43248;SDS011;29216;51.248;6.808;2023-03-23T06:14:02;3.70;;;2.30;;
43248;SDS011;29216;51.248;6.808;2023-03-23T06:16:28;3.50;;;2.53;;
43248;SDS011;29216;51.248;6.808;2023-03-23T06:18:54;3.97;;;2.50;;
43248;SDS011;29216;51.248;6.808;2023-03-23T06:21:21;4.40;;;2.50;;
43248;SDS011;29216;51.248;6.808;2023-03-23T06:23:47;5.93;;;2.40;;
43248;SDS011;29216;51.248;6.808;2023-03-23T06:26:14;6.65;;;2.75;;
43248;SDS011;29216;51.248;6.808;2023-03-23T06:28:42;5.80;;;3.20;;
43248;SDS011;29216;51.248;6.808;2023-03-23T06:31:08;5.50;;;2.50;;
43248;SDS011;29216;51.248;6.808;2023-03-23T06:33:37;4.70;;;2.35;;
43248;SDS011;29216;51.248;6.808;2023-03-23T06:36:04;4.57;;;2.40;;
43248;SDS011;29216;51.248;6.808;2023-03-23T06:38:30;5.47;;;2.40;;
43248;SDS011;29216;51.248;6.808;2023-03-23T06:40:56;8.05;;;3.10;;
43248;SDS011;29216;51.248;6.808;2023-03-23T06:43:22;4.60;;;2.00;;
43248;SDS011;29216;51.248;6.808;2023-03-23T06:45:48;3.92;;;2.40;;
43248;SDS011;29216;51.248;6.808;2023-03-23T06:48:15;6.03;;;2.75;;
43248;SDS011;29216;51.248;6.808;2023-03-23T06:50:44;4.25;;;2.00;;
43248;SDS011;29216;51.248;6.808;2023-03-23T06:53:10;3.35;;;2.28;;
43248;SDS011;29216;51.248;6.808;2023-03-23T06:55:37;4.15;;;2.10;;
43248;SDS011;29216;51.248;6.808;2023-03-23T06:58:03;6.53;;;2.22;;
43248;SDS011;29216;51.248;6.808;2023-03-23T07:00:33;6.03;;;2.42;;
43248;SDS011;29216;51.248;6.808;2023-03-23T07:02:59;3.47;;;2.10;;
43248;SDS011;29216;51.248;6.808;2023-03-23T07:05:24;4.32;;;2.28;;
43248;SDS011;29216;51.248;6.808;2023-03-23T07:07:51;6.43;;;2.30;;
43248;SDS011;29216;51.248;6.808;2023-03-23T07:10:17;4.10;;;2.28;;
43248;SDS011;29216;51.248;6.808;2023-03-23T07:12:42;5.95;;;2.20;;
43248;SDS011;29216;51.248;6.808;2023-03-23T07:15:08;4.80;;;2.10;;
43248;SDS011;29216;51.248;6.808;2023-03-23T07:17:36;3.72;;;2.50;;
43248;SDS011;29216;51.248;6.808;2023-03-23T07:20:03;5.45;;;2.60;;
43248;SDS011;29216;51.248;6.808;2023-03-23T07:22:29;5.57;;;2.20;;
43248;SDS011;29216;51.248;6.808;2023-03-23T07:24:55;6.03;;;2.63;;
43248;SDS011;29216;51.248;6.808;2023-03-23T07:27:21;4.22;;;2.00;;
43248;SDS011;29216;51.248;6.808;2023-03-23T07:29:47;3.25;;;1.85;;
43248;SDS011;29216;51.248;6.808;2023-03-23T07:32:12;7.30;;;2.20;;
43248;SDS011;29216;51.248;6.808;2023-03-23T07:34:38;9.07;;;3.13;;
43248;SDS011;29216;51.248;6.808;2023-03-23T07:37:05;4.25;;;2.17;;
43248;SDS011;29216;51.248;6.808;2023-03-23T07:39:31;3.58;;;2.30;;
43248;SDS011;29216;51.248;6.808;2023-03-23T07:41:58;3.40;;;2.20;;
43248;SDS011;29216;51.248;6.808;2023-03-23T07:44:23;6.55;;;2.10;;
43248;SDS011;29216;51.248;6.808;2023-03-23T07:46:49;4.10;;;2.20;;
43248;SDS011;29216;51.248;6.808;2023-03-23T07:49:15;3.72;;;2.08;;
43248;SDS011;29216;51.248;6.808;2023-03-23T07:51:42;4.30;;;2.30;;
43248;SDS011;29216;51.248;6.808;2023-03-23T07:54:07;4.72;;;1.95;;
43248;SDS011;29216;51.248;6.808;2023-03-23T07:56:34;6.70;;;2.47;;
43248;SDS011;29216;51.248;6.808;2023-03-23T07:59:01;5.88;;;1.85;;
43248;SDS011;29216;51.248;6.808;2023-03-23T08:01:27;3.28;;;1.95;;
43248;SDS011;29216;51.248;6.808;2023-03-23T08:03:54;5.80;;;1.92;;
43248;SDS011;29216;51.248;6.808;2023-03-23T08:06:22;3.10;;;2.10;;
43248;SDS011;29216;51.248;6.808;2023-03-23T08:08:48;5.30;;;2.20;;
43248;SDS011;29216;51.248;6.808;2023-03-23T08:11:14;5.10;;;1.90;;
43248;SDS011;29216;51.248;6.808;2023-03-23T08:13:40;3.17;;;1.80;;
43248;SDS011;29216;51.248;6.808;2023-03-23T08:16:07;7.07;;;2.55;;
43248;SDS011;29216;51.248;6.808;2023-03-23T08:18:34;3.45;;;2.00;;
43248;SDS011;29216;51.248;6.808;2023-03-23T08:21:00;4.80;;;2.10;;
43248;SDS011;29216;51.248;6.808;2023-03-23T08:23:26;6.97;;;2.88;;
43248;SDS011;29216;51.248;6.808;2023-03-23T08:25:52;5.75;;;2.17;;
43248;SDS011;29216;51.248;6.808;2023-03-23T08:28:18;6.88;;;2.53;;
43248;SDS011;29216;51.248;6.808;2023-03-23T08:30:44;6.63;;;2.00;;
43248;SDS011;29216;51.248;6.808;2023-03-23T08:33:10;3.88;;;1.90;;
43248;SDS011;29216;51.248;6.808;2023-03-23T08:35:36;4.13;;;1.85;;
43248;SDS011;29216;51.248;6.808;2023-03-23T08:38:02;4.53;;;2.10;;
43248;SDS011;29216;51.248;6.808;2023-03-23T08:40:28;5.03;;;2.00;;
43248;SDS011;29216;51.248;6.808;2023-03-23T08:42:54;3.90;;;2.03;;
43248;SDS011;29216;51.248;6.808;2023-03-23T08:45:21;8.65;;;2.40;;
43248;SDS011;29216;51.248;6.808;2023-03-23T08:47:48;11.00;;;2.55;;
43248;SDS011;29216;51.248;6.808;2023-03-23T08:50:20;6.95;;;2.30;;
43248;SDS011;29216;51.248;6.808;2023-03-23T08:52:48;3.70;;;1.95;;
43248;SDS011;29216;51.248;6.808;2023-03-23T08:55:15;7.57;;;2.67;;
43248;SDS011;29216;51.248;6.808;2023-03-23T08:57:42;7.47;;;2.33;;
43248;SDS011;29216;51.248;6.808;2023-03-23T09:00:10;7.85;;;2.97;;
43248;SDS011;29216;51.248;6.808;2023-03-23T09:02:42;3.00;;;2.45;;
43248;SDS011;29216;51.248;6.808;2023-03-23T09:05:16;2.67;;;2.00;;
43248;SDS011;29216;51.248;6.808;2023-03-23T09:07:44;4.60;;;2.25;;
43248;SDS011;29216;51.248;6.808;2023-03-23T09:10:12;8.50;;;2.55;;
43248;SDS011;29216;51.248;6.808;2023-03-23T09:12:39;6.40;;;2.45;;
43248;SDS011;29216;51.248;6.808;2023-03-23T09:15:07;8.77;;;2.50;;
43248;SDS011;29216;51.248;6.808;2023-03-23T09:17:35;5.68;;;2.03;;
43248;SDS011;29216;51.248;6.808;2023-03-23T09:20:02;7.70;;;2.85;;
43248;SDS011;29216;51.248;6.808;2023-03-23T09:22:39;8.65;;;2.42;;
43248;SDS011;29216;51.248;6.808;2023-03-23T09:25:09;6.60;;;2.30;;
43248;SDS011;29216;51.248;6.808;2023-03-23T09:27:36;6.20;;;2.92;;
43248;SDS011;29216;51.248;6.808;2023-03-23T09:30:08;5.88;;;1.95;;
43248;SDS011;29216;51.248;6.808;2023-03-23T09:32:36;7.50;;;2.60;;
43248;SDS011;29216;51.248;6.808;2023-03-23T09:35:04;6.07;;;2.10;;
43248;SDS011;29216;51.248;6.808;2023-03-23T09:37:34;4.95;;;2.20;;
43248;SDS011;29216;51.248;6.808;2023-03-23T09:40:01;3.50;;;2.08;;
43248;SDS011;29216;51.248;6.808;2023-03-23T09:45:18;4.95;;;2.10;;
43248;SDS011;29216;51.248;6.808;2023-03-23T09:50:21;7.15;;;2.67;;
43248;SDS011;29216;51.248;6.808;2023-03-23T09:52:56;6.40;;;2.25;;
43248;SDS011;29216;51.248;6.808;2023-03-23T09:55:23;5.63;;;2.33;;
43248;SDS011;29216;51.248;6.808;2023-03-23T09:57:55;5.90;;;2.42;;
43248;SDS011;29216;51.248;6.808;2023-03-23T10:00:38;4.13;;;2.05;;
43248;SDS011;29216;51.248;6.808;2023-03-23T10:03:21;3.58;;;1.35;;
43248;SDS011;29216;51.248;6.808;2023-03-23T10:05:53;2.05;;;1.70;;
43248;SDS011;29216;51.248;6.808;2023-03-23T10:08:21;2.58;;;1.30;;
43248;SDS011;29216;51.248;6.808;2023-03-23T10:11:03;3.53;;;1.27;;
43248;SDS011;29216;51.248;6.808;2023-03-23T10:16:45;3.50;;;1.52;;
43248;SDS011;29216;51.248;6.808;2023-03-23T10:19:46;5.45;;;1.27;;
43248;SDS011;29216;51.248;6.808;2023-03-23T10:22:33;3.08;;;1.42;;
43248;SDS011;29216;51.248;6.808;2023-03-23T10:30:46;2.60;;;1.35;;
43248;SDS011;29216;51.248;6.808;2023-03-23T10:33:32;2.35;;;1.48;;
43248;SDS011;29216;51.248;6.808;2023-03-23T10:38:58;3.85;;;1.48;;
43248;SDS011;29216;51.248;6.808;2023-03-23T10:41:36;1.73;;;1.20;;
43248;SDS011;29216;51.248;6.808;2023-03-23T10:44:08;3.20;;;1.58;;
43248;SDS011;29216;51.248;6.808;2023-03-23T10:57:39;2.67;;;1.33;;
43248;SDS011;29216;51.248;6.808;2023-03-23T11:00:21;2.88;;;1.52;;
43248;SDS011;29216;51.248;6.808;2023-03-23T11:03:06;1.85;;;1.70;;
43248;SDS011;29216;51.248;6.808;2023-03-23T11:05:56;3.90;;;1.60;;
43248;SDS011;29216;51.248;6.808;2023-03-23T11:08:29;2.55;;;1.60;;
43248;SDS011;29216;51.248;6.808;2023-03-23T11:11:14;2.58;;;1.45;;
43248;SDS011;29216;51.248;6.808;2023-03-23T11:13:43;2.05;;;1.50;;
43248;SDS011;29216;51.248;6.808;2023-03-23T11:16:22;3.55;;;1.58;;
43248;SDS011;29216;51.248;6.808;2023-03-23T11:18:51;4.20;;;1.90;;
43248;SDS011;29216;51.248;6.808;2023-03-23T11:21:17;3.67;;;1.88;;
43248;SDS011;29216;51.248;6.808;2023-03-23T11:23:48;2.25;;;1.77;;
43248;SDS011;29216;51.248;6.808;2023-03-23T11:28:59;3.72;;;1.80;;
43248;SDS011;29216;51.248;6.808;2023-03-23T11:36:37;4.53;;;1.80;;
43248;SDS011;29216;51.248;6.808;2023-03-23T11:41:55;6.80;;;2.25;;
43248;SDS011;29216;51.248;6.808;2023-03-23T11:44:23;5.00;;;1.85;;
43248;SDS011;29216;51.248;6.808;2023-03-23T11:52:13;2.45;;;1.73;;
43248;SDS011;29216;51.248;6.808;2023-03-23T11:55:04;2.77;;;2.00;;
43248;SDS011;29216;51.248;6.808;2023-03-23T11:57:39;3.53;;;2.10;;
43248;SDS011;29216;51.248;6.808;2023-03-23T12:00:39;4.13;;;2.10;;
43248;SDS011;29216;51.248;6.808;2023-03-23T12:03:11;4.68;;;2.17;;
43248;SDS011;29216;51.248;6.808;2023-03-23T12:06:05;3.30;;;2.00;;
43248;SDS011;29216;51.248;6.808;2023-03-23T12:11:15;5.00;;;2.30;;
43248;SDS011;29216;51.248;6.808;2023-03-23T12:13:54;3.85;;;2.30;;
43248;SDS011;29216;51.248;6.808;2023-03-23T12:49:19;5.60;;;3.00;;
43248;SDS011;29216;51.248;6.808;2023-03-23T12:52:04;4.53;;;2.72;;
43248;SDS011;29216;51.248;6.808;2023-03-23T12:55:14;5.07;;;3.05;;
43248;SDS011;29216;51.248;6.808;2023-03-23T12:57:43;5.88;;;3.35;;
43248;SDS011;29216;51.248;6.808;2023-03-23T13:00:18;3.25;;;2.78;;
43248;SDS011;29216;51.248;6.808;2023-03-23T13:10:45;4.13;;;3.03;;
43248;SDS011;29216;51.248;6.808;2023-03-23T13:13:14;5.30;;;3.08;;
43248;SDS011;29216;51.248;6.808;2023-03-23T13:15:49;3.40;;;3.10;;
43248;SDS011;29216;51.248;6.808;2023-03-23T13:23:44;3.13;;;2.55;;
43248;SDS011;29216;51.248;6.808;2023-03-23T13:26:19;5.47;;;2.80;;
43248;SDS011;29216;51.248;6.808;2023-03-23T13:34:01;5.45;;;3.00;;
43248;SDS011;29216;51.248;6.808;2023-03-23T13:36:37;5.30;;;3.30;;
43248;SDS011;29216;51.248;6.808;2023-03-23T13:39:06;4.10;;;3.00;;
43248;SDS011;29216;51.248;6.808;2023-03-23T13:41:47;4.30;;;2.90;;
43248;SDS011;29216;51.248;6.808;2023-03-23T13:44:18;4.22;;;3.08;;
43248;SDS011;29216;51.248;6.808;2023-03-23T13:46:55;4.40;;;3.08;;
43248;SDS011;29216;51.248;6.808;2023-03-23T13:49:29;6.75;;;3.45;;
43248;SDS011;29216;51.248;6.808;2023-03-23T13:52:06;5.18;;;3.30;;
43248;SDS011;29216;51.248;6.808;2023-03-23T13:54:43;6.88;;;2.95;;
43248;SDS011;29216;51.248;6.808;2023-03-23T13:58:11;4.65;;;3.10;;
43248;SDS011;29216;51.248;6.808;2023-03-23T14:05:38;5.30;;;3.15;;
43248;SDS011;29216;51.248;6.808;2023-03-23T14:10:43;5.90;;;3.47;;
43248;SDS011;29216;51.248;6.808;2023-03-23T14:13:23;4.85;;;3.47;;
43248;SDS011;29216;51.248;6.808;2023-03-23T14:15:57;5.75;;;3.50;;
43248;SDS011;29216;51.248;6.808;2023-03-23T14:18:37;4.90;;;3.50;;
43248;SDS011;29216;51.248;6.808;2023-03-23T14:21:04;11.10;;;3.50;;
43248;SDS011;29216;51.248;6.808;2023-03-23T14:23:37;5.25;;;3.17;;
43248;SDS011;29216;51.248;6.808;2023-03-23T14:26:09;6.45;;;2.90;;
43248;SDS011;29216;51.248;6.808;2023-03-23T14:28:41;4.68;;;2.67;;
43248;SDS011;29216;51.248;6.808;2023-03-23T14:31:41;3.58;;;2.40;;
43248;SDS011;29216;51.248;6.808;2023-03-23T14:34:02;2.50;;;2.20;;
43248;SDS011;29216;51.248;6.808;2023-03-23T14:36:31;3.10;;;2.63;;
43248;SDS011;29216;51.248;6.808;2023-03-23T14:41:39;3.10;;;2.05;;
43248;SDS011;29216;51.248;6.808;2023-03-23T14:44:07;3.25;;;2.00;;
43248;SDS011;29216;51.248;6.808;2023-03-23T14:46:37;5.60;;;2.13;;
43248;SDS011;29216;51.248;6.808;2023-03-23T14:49:04;3.42;;;2.00;;
43248;SDS011;29216;51.248;6.808;2023-03-23T14:51:30;2.75;;;2.05;;
43248;SDS011;29216;51.248;6.808;2023-03-23T14:53:57;4.32;;;2.47;;
43248;SDS011;29216;51.248;6.808;2023-03-23T14:56:32;6.43;;;2.38;;
43248;SDS011;29216;51.248;6.808;2023-03-23T14:59:04;7.53;;;3.28;;
43248;SDS011;29216;51.248;6.808;2023-03-23T15:01:31;6.82;;;2.58;;
43248;SDS011;29216;51.248;6.808;2023-03-23T15:04:01;3.45;;;2.22;;
43248;SDS011;29216;51.248;6.808;2023-03-23T15:06:28;4.65;;;2.30;;
43248;SDS011;29216;51.248;6.808;2023-03-23T15:08:56;4.22;;;2.28;;
43248;SDS011;29216;51.248;6.808;2023-03-23T15:11:29;6.35;;;2.67;;
43248;SDS011;29216;51.248;6.808;2023-03-23T15:13:58;5.70;;;2.38;;
43248;SDS011;29216;51.248;6.808;2023-03-23T15:16:31;5.25;;;2.70;;
43248;SDS011;29216;51.248;6.808;2023-03-23T15:19:20;5.18;;;2.97;;
43248;SDS011;29216;51.248;6.808;2023-03-23T15:27:10;9.73;;;2.67;;
43248;SDS011;29216;51.248;6.808;2023-03-23T15:32:19;5.53;;;2.10;;
43248;SDS011;29216;51.248;6.808;2023-03-23T15:34:56;3.75;;;2.30;;
43248;SDS011;29216;51.248;6.808;2023-03-23T15:37:32;4.88;;;1.98;;
43248;SDS011;29216;51.248;6.808;2023-03-23T15:39:59;4.63;;;2.45;;
43248;SDS011;29216;51.248;6.808;2023-03-23T15:44:55;7.80;;;2.55;;
43248;SDS011;29216;51.248;6.808;2023-03-23T15:47:32;5.43;;;2.38;;
43248;SDS011;29216;51.248;6.808;2023-03-23T15:52:36;4.72;;;2.75;;
43248;SDS011;29216;51.248;6.808;2023-03-23T15:55:02;6.22;;;2.70;;
43248;SDS011;29216;51.248;6.808;2023-03-23T15:57:28;6.22;;;2.90;;
43248;SDS011;29216;51.248;6.808;2023-03-23T15:59:54;7.18;;;2.80;;
43248;SDS011;29216;51.248;6.808;2023-03-23T16:02:22;3.42;;;2.17;;
43248;SDS011;29216;51.248;6.808;2023-03-23T16:04:49;5.57;;;2.50;;
43248;SDS011;29216;51.248;6.808;2023-03-23T16:07:16;5.00;;;2.47;;
43248;SDS011;29216;51.248;6.808;2023-03-23T16:09:45;6.03;;;2.53;;
43248;SDS011;29216;51.248;6.808;2023-03-23T16:12:11;5.82;;;3.17;;
43248;SDS011;29216;51.248;6.808;2023-03-23T16:14:39;4.97;;;2.35;;
43248;SDS011;29216;51.248;6.808;2023-03-23T16:17:07;9.30;;;2.90;;
43248;SDS011;29216;51.248;6.808;2023-03-23T16:19:37;4.72;;;2.80;;
43248;SDS011;29216;51.248;6.808;2023-03-23T16:22:03;6.22;;;2.70;;
43248;SDS011;29216;51.248;6.808;2023-03-23T16:24:29;6.50;;;2.88;;
43248;SDS011;29216;51.248;6.808;2023-03-23T16:26:54;3.92;;;2.55;;
43248;SDS011;29216;51.248;6.808;2023-03-23T16:29:20;6.95;;;2.50;;
43248;SDS011;29216;51.248;6.808;2023-03-23T16:31:46;5.82;;;2.60;;
43248;SDS011;29216;51.248;6.808;2023-03-23T16:34:11;7.47;;;2.90;;
43248;SDS011;29216;51.248;6.808;2023-03-23T16:36:37;5.53;;;3.08;;
43248;SDS011;29216;51.248;6.808;2023-03-23T16:39:03;4.18;;;2.53;;
43248;SDS011;29216;51.248;6.808;2023-03-23T16:41:28;6.13;;;2.72;;
43248;SDS011;29216;51.248;6.808;2023-03-23T16:43:54;6.75;;;2.90;;
43248;SDS011;29216;51.248;6.808;2023-03-23T16:46:20;5.65;;;2.92;;
43248;SDS011;29216;51.248;6.808;2023-03-23T16:48:46;5.85;;;2.53;;
43248;SDS011;29216;51.248;6.808;2023-03-23T16:51:11;5.43;;;2.67;;
43248;SDS011;29216;51.248;6.808;2023-03-23T16:53:37;5.53;;;2.83;;
43248;SDS011;29216;51.248;6.808;2023-03-23T16:56:03;6.20;;;2.50;;
43248;SDS011;29216;51.248;6.808;2023-03-23T16:58:29;6.38;;;2.63;;
43248;SDS011;29216;51.248;6.808;2023-03-23T17:00:55;3.10;;;2.00;;
43248;SDS011;29216;51.248;6.808;2023-03-23T17:03:20;5.78;;;3.00;;
43248;SDS011;29216;51.248;6.808;2023-03-23T17:05:47;5.45;;;2.22;;
43248;SDS011;29216;51.248;6.808;2023-03-23T17:08:14;9.77;;;2.47;;
43248;SDS011;29216;51.248;6.808;2023-03-23T17:10:40;4.72;;;2.30;;
43248;SDS011;29216;51.248;6.808;2023-03-23T17:13:07;5.03;;;2.90;;
43248;SDS011;29216;51.248;6.808;2023-03-23T17:15:37;6.25;;;2.50;;
43248;SDS011;29216;51.248;6.808;2023-03-23T17:18:03;4.93;;;2.40;;
43248;SDS011;29216;51.248;6.808;2023-03-23T17:20:30;6.95;;;2.63;;
43248;SDS011;29216;51.248;6.808;2023-03-23T17:22:56;5.38;;;2.60;;
43248;SDS011;29216;51.248;6.808;2023-03-23T17:25:23;5.80;;;2.70;;
43248;SDS011;29216;51.248;6.808;2023-03-23T17:27:50;6.78;;;2.90;;
43248;SDS011;29216;51.248;6.808;2023-03-23T17:30:16;11.30;;;2.58;;